Time;durP1;ratioP1;P1;durP2;ratioP2;P2;SDS_P1;SDS_P2;PMS_P1;PMS_P2;Temp;Humidity;BMP_temperature;BMP_pressure;BME280_temperature;BME280_humidity;BME280_pressure;Samples;Min_cycle;Max_cycle;Signal;HPM_P1;HPM_P2
2023/02/21 02:15:45;;;;;;;;;;;;;;;16.34;67.13;100821.53;7399316;19;1975;-38
2023/02/21 02:18:28;;;;;;;;;;;;;;;16.31;66.69;100835.94;7400337;19;2056;-38
2023/02/21 02:21:11;;;;;;;;;;;;;;;16.29;67.03;100812.06;7396199;19;2097;-38
2023/02/21 02:23:54;;;;;;;;;;;;;;;16.28;66.66;100834.34;7398800;19;1793;-38
2023/02/21 02:26:37;;;;;;;;;;;;;;;16.27;67.01;100818.44;7398924;19;1930;-38
2023/02/21 02:29:24;;;;;;;;;;;;;;;16.35;67.00;100821.38;7399116;19;2103;-38
2023/02/21 02:32:03;;;;;;;;;;;;;;;16.52;67.17;100828.13;7399097;19;1812;-38
2023/02/21 02:34:38;;;;;;;;;;;;;;;16.46;66.55;100809.91;7399663;19;1690;-38
2023/02/21 02:37:12;;;;;;;;;;;;;;;16.42;66.80;100816.44;7397206;19;2262;-37
2023/02/21 02:39:43;;;;;;;;;;;;;;;16.38;67.11;100825.66;7398973;19;2041;-38
2023/02/21 02:42:17;;;;;;;;;;;;;;;16.34;67.13;100818.88;7399484;19;2020;-38
2023/02/21 02:44:50;;;;;;;;;;;;;;;16.30;66.98;100818.25;7398368;19;1898;-38
2023/02/21 02:47:21;;;;;;;;;;;;;;;16.33;67.03;100851.84;7398364;19;1758;-39
2023/02/21 02:49:53;;;;;;;;;;;;;;;16.42;66.61;100829.81;7398851;19;2094;-39
2023/02/21 02:52:21;;;;;;;;;;;;;;;17.43;63.56;100829.91;7398747;19;2066;-39
2023/02/21 02:54:59;;;;;;;;;;;;;;;18.62;60.61;100822.78;7398593;19;2039;-39
2023/02/21 02:57:28;;;;;;;;;;;;;;;19.10;59.55;100821.34;7398832;19;2093;-39
2023/02/21 02:59:56;;;;;;;;;;;;;;;19.43;58.59;100849.72;7398786;19;2089;-39
2023/02/21 03:02:33;;;;;;;;;;;;;;;19.74;57.56;100823.69;7398550;19;1903;-39
2023/02/21 03:05:10;;;;;;;;;;;;;;;19.47;58.54;100825.16;7399286;19;1102;-39
2023/02/21 03:07:42;;;;;;;;;;;;;;;19.38;58.88;100835.88;7398655;19;2201;-39
2023/02/21 03:10:16;;;;;;;;;;;;;;;19.37;59.03;100834.16;7398580;19;2241;-39
2023/02/21 03:12:49;;;;;;;;;;;;;;;19.44;59.03;100803.97;7399249;19;2105;-39
2023/02/21 03:15:20;;;;;;;;;;;;;;;19.58;58.33;100818.00;7404375;19;2243;-39
2023/02/21 03:17:53;;;;;;;;;;;;;;;19.53;58.73;100798.78;7405800;19;2077;-39
2023/02/21 03:20:24;;;;;;;;;;;;;;;19.57;58.18;100800.19;7404737;19;2054;-39
2023/02/21 03:22:53;;;;;;;;;;;;;;;19.53;58.50;100794.25;7404693;19;1901;-39
2023/02/21 03:25:23;;;;;;;;;;;;;;;19.52;58.60;100802.44;7405640;19;2181;-39
2023/02/21 03:27:53;;;;;;;;;;;;;;;19.60;58.24;100791.88;7405625;19;1735;-39
2023/02/21 03:30:21;;;;;;;;;;;;;;;19.58;58.50;100777.75;7404008;19;2295;-39
2023/02/21 03:32:51;;;;;;;;;;;;;;;19.59;58.35;100796.38;7404196;19;2064;-39
2023/02/21 03:35:21;;;;;;;;;;;;;;;19.62;58.26;100793.44;7403513;19;2029;-39
2023/02/21 03:37:53;;;;;;;;;;;;;;;19.63;58.46;100784.38;7404717;19;2077;-39
2023/02/21 03:40:23;;;;;;;;;;;;;;;19.68;58.19;100783.97;7404460;19;1897;-39
2023/02/21 03:42:51;;;;;;;;;;;;;;;19.79;58.19;100797.28;7404775;19;2058;-39
2023/02/21 03:45:20;;;;;;;;;;;;;;;19.73;58.18;100787.09;7404878;19;2227;-38
2023/02/21 03:47:48;;;;;;;;;;;;;;;19.72;58.32;100784.59;7403396;19;1885;-39
2023/02/21 03:50:16;;;;;;;;;;;;;;;19.82;58.16;100801.53;7403235;19;2145;-39
2023/02/21 03:52:45;;;;;;;;;;;;;;;19.90;57.47;100798.16;7404930;19;2117;-39
2023/02/21 03:55:15;;;;;;;;;;;;;;;19.92;57.74;100791.66;7403535;19;2144;-39
2023/02/21 03:57:44;;;;;;;;;;;;;;;19.94;57.30;100797.72;7404301;19;2097;-39
2023/02/21 04:00:13;;;;;;;;;;;;;;;19.82;57.84;100802.38;7403129;19;2023;-39
2023/02/21 04:02:41;;;;;;;;;;;;;;;19.04;59.97;100788.75;7403629;19;1905;-39
2023/02/21 04:05:10;;;;;;;;;;;;;;;18.50;61.20;100787.19;7404677;19;926;-39
2023/02/21 04:07:38;;;;;;;;;;;;;;;18.13;62.41;100779.63;7403934;19;2178;-39
2023/02/21 04:10:06;;;;;;;;;;;;;;;18.33;62.11;100803.84;7403287;19;2176;-39
2023/02/21 04:12:37;;;;;;;;;;;;;;;18.96;60.05;100785.91;7403138;19;2133;-39
2023/02/21 04:15:06;;;;;;;;;;;;;;;19.21;59.52;100787.25;7403373;19;1754;-39
2023/02/21 04:17:34;;;;;;;;;;;;;;;19.36;59.33;100768.97;7401316;19;2033;-39
2023/02/21 04:20:02;;;;;;;;;;;;;;;19.44;58.77;100769.13;7403219;19;2035;-39
2023/02/21 04:22:31;;;;;;;;;;;;;;;19.35;58.81;100779.81;7402622;19;2082;-39
2023/02/21 04:24:59;;;;;;;;;;;;;;;19.33;59.15;100785.31;7401521;19;1936;-39
2023/02/21 04:27:28;;;;;;;;;;;;;;;19.22;59.47;100769.38;7403686;19;2046;-39
2023/02/21 04:29:59;;;;;;;;;;;;;;;19.21;59.69;100786.41;7402952;19;1986;-39
2023/02/21 04:32:27;;;;;;;;;;;;;;;19.20;59.25;100771.31;7402735;19;1789;-39
2023/02/21 04:34:55;;;;;;;;;;;;;;;19.11;59.72;100770.28;7403079;19;2122;-39
2023/02/21 04:37:24;;;;;;;;;;;;;;;19.14;59.39;100774.53;7401732;19;1923;-39
2023/02/21 04:39:52;;;;;;;;;;;;;;;19.17;59.55;100758.19;7403111;19;2825;-39
2023/02/21 04:42:20;;;;;;;;;;;;;;;19.16;59.64;100743.06;7402440;19;2222;-39
2023/02/21 04:44:49;;;;;;;;;;;;;;;19.14;59.57;100756.63;7402153;19;2156;-39
2023/02/21 04:47:19;;;;;;;;;;;;;;;19.10;59.82;100743.63;7402532;19;2099;-39
2023/02/21 04:49:50;;;;;;;;;;;;;;;19.16;59.56;100752.00;7403069;19;2106;-39
2023/02/21 04:52:19;;;;;;;;;;;;;;;19.07;59.62;100752.78;7401612;19;2318;-39
2023/02/21 04:54:47;;;;;;;;;;;;;;;19.14;59.74;100745.91;7402082;19;1979;-39
2023/02/21 04:57:15;;;;;;;;;;;;;;;19.17;59.69;100731.38;7399885;19;2114;-39
2023/02/21 04:59:44;;;;;;;;;;;;;;;19.16;59.48;100740.38;7403536;19;2044;-39
2023/02/21 05:02:12;;;;;;;;;;;;;;;19.17;59.33;100737.59;7402103;19;1878;-39
2023/02/21 05:04:43;;;;;;;;;;;;;;;19.15;59.41;100750.28;7401799;19;2029;-39
2023/02/21 05:07:12;;;;;;;;;;;;;;;19.21;59.31;100711.34;7400063;19;2235;-39
2023/02/21 05:09:40;;;;;;;;;;;;;;;19.31;59.28;100712.22;7398990;19;1794;-39
2023/02/21 05:12:10;;;;;;;;;;;;;;;19.35;58.87;100724.34;7399679;19;2163;-39
2023/02/21 05:14:39;;;;;;;;;;;;;;;19.42;58.82;100725.50;7401016;19;2007;-39
2023/02/21 05:17:08;;;;;;;;;;;;;;;19.45;58.74;100727.88;7398213;19;2017;-39
2023/02/21 05:19:36;;;;;;;;;;;;;;;19.46;58.68;100726.09;7400158;19;2117;-39
2023/02/21 05:22:08;;;;;;;;;;;;;;;19.15;59.29;100717.28;7401456;19;1929;-39
2023/02/21 05:24:36;;;;;;;;;;;;;;;18.57;60.73;100733.97;7401948;19;2009;-39
2023/02/21 05:27:04;;;;;;;;;;;;;;;18.23;61.64;100736.88;7402114;19;2001;-39
2023/02/21 05:29:33;;;;;;;;;;;;;;;18.52;61.21;100736.16;7401449;19;1938;-39
2023/02/21 05:32:01;;;;;;;;;;;;;;;19.00;59.87;100730.19;7400934;19;1681;-39
2023/02/21 05:34:29;;;;;;;;;;;;;;;19.24;59.64;100711.09;7398261;19;2387;-40
2023/02/21 05:36:58;;;;;;;;;;;;;;;18.74;60.79;100740.50;7397722;19;2143;-39
2023/02/21 05:39:28;;;;;;;;;;;;;;;18.43;61.17;100727.13;7396244;19;1923;-39
2023/02/21 05:41:57;;;;;;;;;;;;;;;18.43;61.60;100724.44;7399361;19;2042;-39
2023/02/21 05:44:25;;;;;;;;;;;;;;;18.95;60.14;100713.69;7400526;19;2100;-39
2023/02/21 05:46:53;;;;;;;;;;;;;;;19.18;59.09;100725.88;7399957;19;2139;-39
2023/02/21 05:49:22;;;;;;;;;;;;;;;18.73;60.03;100742.34;7399948;19;2289;-38
2023/02/21 05:51:50;;;;;;;;;;;;;;;18.27;61.48;100735.63;7400606;19;2439;-39
2023/02/21 05:54:20;;;;;;;;;;;;;;;18.20;61.67;100734.44;7400031;19;1882;-39
2023/02/21 05:56:52;;;;;;;;;;;;;;;18.53;61.03;100741.41;7400159;19;2403;-39
2023/02/21 05:59:22;;;;;;;;;;;;;;;18.97;59.38;100720.59;7395897;19;1935;-39
2023/02/21 06:01:51;;;;;;;;;;;;;;;19.31;58.62;100733.66;7397471;19;1596;-39
2023/02/21 06:04:20;;;;;;;;;;;;;;;18.82;59.23;100724.63;7398184;19;2138;-39
2023/02/21 06:06:48;;;;;;;;;;;;;;;18.41;60.43;100731.75;7389422;19;1846;-39
2023/02/21 06:09:17;;;;;;;;;;;;;;;18.35;60.76;100746.50;7395698;19;1994;-39
2023/02/21 06:11:46;;;;;;;;;;;;;;;18.70;59.51;100745.28;7396714;19;1801;-39
2023/02/21 06:14:18;;;;;;;;;;;;;;;19.12;58.65;100739.84;7396820;19;1939;-39
2023/02/21 06:16:47;;;;;;;;;;;;;;;19.28;58.16;100734.78;7397120;19;1868;-39
2023/02/21 06:19:16;;;;;;;;;;;;;;;18.86;59.31;100736.78;7399190;19;1812;-39
2023/02/21 06:21:45;;;;;;;;;;;;;;;18.53;60.27;100737.88;7399547;19;2160;-39
2023/02/21 06:24:13;;;;;;;;;;;;;;;18.60;60.12;100739.91;7398640;19;1788;-39
2023/02/21 06:26:43;;;;;;;;;;;;;;;18.97;59.31;100725.97;7399488;19;2083;-39
2023/02/21 06:29:12;;;;;;;;;;;;;;;19.54;57.82;100728.06;7398206;19;1755;-39
2023/02/21 06:31:43;;;;;;;;;;;;;;;19.25;58.22;100735.06;7397448;19;2170;-39
2023/02/21 06:34:11;;;;;;;;;;;;;;;18.83;59.22;100726.34;7399326;19;2010;-39
2023/02/21 06:36:40;;;;;;;;;;;;;;;18.55;60.53;100728.72;7395374;19;2190;-39
2023/02/21 06:39:09;;;;;;;;;;;;;;;18.85;59.78;100727.06;7397249;19;1830;-39
2023/02/21 06:41:37;;;;;;;;;;;;;;;19.26;58.56;100719.84;7396755;19;2082;-39
2023/02/21 06:44:06;;;;;;;;;;;;;;;19.34;58.44;100729.84;7398533;19;1937;-39
2023/02/21 06:46:35;;;;;;;;;;;;;;;18.92;59.25;100706.78;7399397;19;2005;-39
2023/02/21 06:49:06;;;;;;;;;;;;;;;18.69;60.13;100712.28;7405455;19;1735;-39
2023/02/21 06:51:36;;;;;;;;;;;;;;;18.67;59.83;100697.34;7403824;19;1718;-39
2023/02/21 06:54:04;;;;;;;;;;;;;;;19.14;59.07;100704.84;7405022;19;2012;-39
2023/02/21 06:56:32;;;;;;;;;;;;;;;19.50;57.93;100722.13;7404112;19;1855;-39
2023/02/21 06:59:01;;;;;;;;;;;;;;;19.08;58.07;100719.66;7400795;19;1666;-39
2023/02/21 07:01:30;;;;;;;;;;;;;;;18.76;59.42;100727.81;7403766;19;1850;-39
2023/02/21 07:03:59;;;;;;;;;;;;;;;18.64;60.20;100735.09;7404855;19;1710;-39
2023/02/21 07:06:32;;;;;;;;;;;;;;;19.15;58.64;100728.84;7403053;19;2090;-39
2023/02/21 07:09:00;;;;;;;;;;;;;;;19.67;57.56;100723.25;7402931;19;2116;-39
2023/02/21 07:11:29;;;;;;;;;;;;;;;19.46;58.10;100726.91;7403985;19;2002;-39
2023/02/21 07:13:58;;;;;;;;;;;;;;;19.09;59.94;100718.66;7405229;19;2057;-39
2023/02/21 07:16:26;;;;;;;;;;;;;;;18.77;60.49;100719.66;7403000;19;1847;-39
2023/02/21 07:18:55;;;;;;;;;;;;;;;18.92;60.52;100717.50;7403548;19;2015;-39
2023/02/21 07:21:23;;;;;;;;;;;;;;;19.38;59.67;100713.38;7402736;19;1870;-39
2023/02/21 07:23:54;;;;;;;;;;;;;;;19.76;58.77;100722.44;7404218;19;1833;-39
2023/02/21 07:26:22;;;;;;;;;;;;;;;19.41;59.58;100729.16;7403927;19;2109;-39
2023/02/21 07:28:52;;;;;;;;;;;;;;;19.07;62.36;100729.50;7403700;19;2093;-39
2023/02/21 07:31:20;;;;;;;;;;;;;;;18.82;62.73;100713.91;7403783;19;2155;-39
2023/02/21 07:33:48;;;;;;;;;;;;;;;19.17;62.28;100712.63;7403511;19;2019;-39
2023/02/21 07:36:17;;;;;;;;;;;;;;;19.72;60.44;100694.22;7401361;19;2095;-39
2023/02/21 07:38:45;;;;;;;;;;;;;;;19.80;60.80;100705.06;7398808;19;2468;-39
2023/02/21 07:41:17;;;;;;;;;;;;;;;19.42;62.15;100711.25;7401342;19;1832;-39
2023/02/21 07:43:45;;;;;;;;;;;;;;;19.13;63.38;100714.72;7403501;19;2089;-39
2023/02/21 07:46:14;;;;;;;;;;;;;;;18.88;64.35;100700.00;7403731;19;2185;-39
2023/02/21 07:48:42;;;;;;;;;;;;;;;19.26;63.03;100687.66;7403118;19;1830;-39
2023/02/21 07:51:11;;;;;;;;;;;;;;;19.84;61.56;100687.69;7403073;19;1836;-39
2023/02/21 07:53:39;;;;;;;;;;;;;;;19.63;62.94;100673.56;7401766;19;2037;-39
2023/02/21 07:56:07;;;;;;;;;;;;;;;19.27;64.41;100689.34;7401939;19;1841;-39
2023/02/21 07:58:38;;;;;;;;;;;;;;;19.04;64.95;100704.84;7398108;19;2228;-39
2023/02/21 08:01:07;;;;;;;;;;;;;;;18.96;64.96;100696.63;7401196;19;2147;-39
2023/02/21 08:03:36;;;;;;;;;;;;;;;19.44;63.55;100691.34;7401590;19;2017;-40
2023/02/21 08:06:05;;;;;;;;;;;;;;;19.71;62.42;100680.91;7400662;19;1795;-39
2023/02/21 08:08:33;;;;;;;;;;;;;;;19.38;63.67;100691.91;7402987;19;1795;-39
2023/02/21 08:11:01;;;;;;;;;;;;;;;18.98;65.12;100695.50;7402814;19;1770;-39
2023/02/21 08:13:30;;;;;;;;;;;;;;;18.75;65.74;100689.47;7401636;19;1763;-39
2023/02/21 08:16:01;;;;;;;;;;;;;;;18.90;65.47;100689.13;7403729;19;2196;-39
2023/02/21 08:18:29;;;;;;;;;;;;;;;19.51;63.30;100680.06;7400189;19;1904;-39
2023/02/21 08:20:58;;;;;;;;;;;;;;;19.43;63.14;100684.28;7402285;19;1910;-39
2023/02/21 08:23:27;;;;;;;;;;;;;;;19.15;64.25;100696.66;7401569;19;2162;-40
2023/02/21 08:25:55;;;;;;;;;;;;;;;18.87;65.59;100671.50;7402154;19;1888;-39
2023/02/21 08:28:24;;;;;;;;;;;;;;;18.77;66.09;100676.78;7402612;19;1742;-40
2023/02/21 08:30:52;;;;;;;;;;;;;;;19.14;64.59;100670.84;7401041;19;2023;-39
2023/02/21 08:33:23;;;;;;;;;;;;;;;19.63;63.46;100660.97;7401198;19;1747;-39
2023/02/21 08:35:52;;;;;;;;;;;;;;;19.36;63.65;100664.38;7400154;19;1787;-39
2023/02/21 08:38:20;;;;;;;;;;;;;;;19.05;64.68;100660.97;7400378;19;1864;-39
2023/02/21 08:40:50;;;;;;;;;;;;;;;18.88;65.27;100649.09;7401372;19;2110;-39
2023/02/21 08:43:18;;;;;;;;;;;;;;;19.05;64.31;100659.13;7401319;19;1763;-40
2023/02/21 08:45:46;;;;;;;;;;;;;;;19.56;62.79;100637.56;7402482;19;1643;-40
2023/02/21 08:48:15;;;;;;;;;;;;;;;19.50;62.78;100646.16;7401687;19;1897;-40
2023/02/21 08:50:46;;;;;;;;;;;;;;;19.25;63.88;100648.44;7402264;19;1804;-40
2023/02/21 08:53:15;;;;;;;;;;;;;;;19.10;64.08;100639.97;7401079;19;1875;-40
2023/02/21 08:55:44;;;;;;;;;;;;;;;18.94;64.31;100637.81;7402399;19;2182;-40
2023/02/21 08:58:13;;;;;;;;;;;;;;;19.25;63.43;100630.50;7400332;19;1849;-40
2023/02/21 09:00:41;;;;;;;;;;;;;;;19.76;61.30;100620.50;7399266;19;1848;-40
2023/02/21 09:03:10;;;;;;;;;;;;;;;19.58;61.75;100627.56;7400360;19;1631;-40
2023/02/21 09:05:40;;;;;;;;;;;;;;;19.25;62.71;100614.41;7398968;19;1728;-40
2023/02/21 09:08:12;;;;;;;;;;;;;;;19.04;63.28;100630.63;7400134;19;1795;-40
2023/02/21 09:10:46;;;;;;;;;;;;;;;18.88;63.91;100619.63;7399256;19;1607;-40
2023/02/21 09:13:14;;;;;;;;;;;;;;;19.47;62.22;100632.03;7401707;19;1348;-40
2023/02/21 09:15:43;;;;;;;;;;;;;;;19.62;61.63;100627.13;7400909;19;2182;-40
2023/02/21 09:18:13;;;;;;;;;;;;;;;19.34;62.40;100622.59;7400821;19;1870;-41
2023/02/21 09:20:41;;;;;;;;;;;;;;;19.17;63.01;100635.72;7401185;19;1567;-40
2023/02/21 09:23:14;;;;;;;;;;;;;;;18.86;63.91;100601.00;7398887;19;1679;-40
2023/02/21 09:25:42;;;;;;;;;;;;;;;19.23;62.61;100613.72;7399530;19;1709;-41
2023/02/21 09:28:10;;;;;;;;;;;;;;;19.84;61.14;100606.34;7399112;19;2183;-40
2023/02/21 09:30:39;;;;;;;;;;;;;;;19.59;61.36;100605.09;7400122;19;2044;-40
2023/02/21 09:33:07;;;;;;;;;;;;;;;19.20;62.75;100608.66;7398649;19;1958;-40
2023/02/21 09:35:35;;;;;;;;;;;;;;;18.94;63.28;100612.84;7396517;19;1914;-40
2023/02/21 09:38:06;;;;;;;;;;;;;;;18.81;63.38;100599.72;7400137;19;2214;-41
2023/02/21 09:40:41;;;;;;;;;;;;;;;19.19;62.70;100590.00;7399710;19;1775;-41
2023/02/21 09:43:14;;;;;;;;;;;;;;;19.51;61.48;100603.13;7396541;19;1977;-40
2023/02/21 09:45:44;;;;;;;;;;;;;;;19.22;62.38;100600.47;7399425;19;1845;-41
2023/02/21 09:48:14;;;;;;;;;;;;;;;18.96;63.13;100600.16;7399901;19;2015;-41
2023/02/21 09:50:44;;;;;;;;;;;;;;;18.79;64.00;100604.34;7399638;19;1757;-40
2023/02/21 09:53:14;;;;;;;;;;;;;;;19.21;62.55;100590.72;7400219;19;1829;-40
2023/02/21 09:55:46;;;;;;;;;;;;;;;19.48;61.57;100590.84;7399739;19;1841;-40
2023/02/21 09:58:16;;;;;;;;;;;;;;;19.18;62.29;100567.72;7399311;19;1845;-40
2023/02/21 10:00:45;;;;;;;;;;;;;;;18.98;62.90;100560.66;7399194;19;1917;-40
2023/02/21 10:03:25;;;;;;;;;;;;;;;18.80;63.10;100573.91;7399895;19;1886;-41
2023/02/21 10:05:59;;;;;;;;;;;;;;;19.03;62.72;100553.06;7398607;19;1817;-41
2023/02/21 10:08:35;;;;;;;;;;;;;;;19.47;61.46;100554.28;7399284;19;1898;-41
2023/02/21 10:11:12;;;;;;;;;;;;;;;19.27;62.28;100563.34;7399948;19;1828;-40
2023/02/21 10:13:44;;;;;;;;;;;;;;;19.05;62.71;100537.69;7397354;19;1858;-40
2023/02/21 10:16:17;;;;;;;;;;;;;;;18.84;63.10;100554.75;7399917;19;1554;-40
2023/02/21 10:18:50;;;;;;;;;;;;;;;19.04;62.41;100550.25;7398069;19;1877;-40
2023/02/21 10:21:23;;;;;;;;;;;;;;;19.62;60.99;100564.59;7399740;19;1385;-40
2023/02/21 10:23:54;;;;;;;;;;;;;;;19.42;61.48;100542.31;7407196;19;1772;-40
2023/02/21 10:26:28;;;;;;;;;;;;;;;19.16;62.28;100545.59;7406974;19;2174;-39
2023/02/21 10:28:57;;;;;;;;;;;;;;;18.92;63.07;100534.44;7406056;19;1685;-40
2023/02/21 10:31:30;;;;;;;;;;;;;;;18.85;62.75;100550.22;7407069;19;1826;-40
2023/02/21 10:33:59;;;;;;;;;;;;;;;19.42;61.62;100528.91;7407144;19;1801;-40
2023/02/21 10:36:29;;;;;;;;;;;;;;;19.60;60.91;100521.78;7404276;19;1813;-40
2023/02/21 10:39:00;;;;;;;;;;;;;;;19.34;62.04;100526.06;7405001;19;2201;-40
2023/02/21 10:41:32;;;;;;;;;;;;;;;19.06;62.59;100521.47;7405448;19;1706;-40
2023/02/21 10:44:03;;;;;;;;;;;;;;;18.79;63.12;100515.94;7404391;19;1808;-41
2023/02/21 10:46:35;;;;;;;;;;;;;;;18.94;63.12;100519.91;7403194;19;2107;-40
2023/02/21 10:49:19;;;;;;;;;;;;;;;19.73;61.16;100528.72;7404342;19;1612;-40
2023/02/21 10:51:49;;;;;;;;;;;;;;;19.69;60.72;100512.03;7403263;19;1666;-40
2023/02/21 10:54:22;;;;;;;;;;;;;;;19.37;61.86;100507.88;7403870;19;1597;-40
2023/02/21 10:56:54;;;;;;;;;;;;;;;19.16;62.79;100502.69;7403642;19;1899;-40
2023/02/21 10:59:24;;;;;;;;;;;;;;;19.05;62.34;100519.75;7402899;19;2020;-40
2023/02/21 11:01:55;;;;;;;;;;;;;;;19.00;62.54;100516.69;7404092;19;1852;-40
2023/02/21 11:04:28;;;;;;;;;;;;;;;19.43;61.28;100511.81;7405474;19;1821;-40
2023/02/21 11:06:57;;;;;;;;;;;;;;;19.47;60.46;100518.56;7404946;19;1709;-40
2023/02/21 11:09:31;;;;;;;;;;;;;;;19.13;61.82;100499.44;7405395;19;1954;-40
2023/02/21 11:12:06;;;;;;;;;;;;;;;18.94;61.69;100495.81;7404920;19;1787;-40
2023/02/21 11:14:35;;;;;;;;;;;;;;;18.79;61.68;100491.81;7405020;19;1695;-40
2023/02/21 11:17:15;;;;;;;;;;;;;;;18.95;61.85;100494.81;7404861;19;1919;-40
2023/02/21 11:19:45;;;;;;;;;;;;;;;19.58;59.87;100488.06;7402268;19;1886;-40
2023/02/21 11:22:14;;;;;;;;;;;;;;;19.43;59.32;100483.16;7402870;19;2150;-40
2023/02/21 11:24:47;;;;;;;;;;;;;;;19.22;59.98;100485.19;7403776;19;1802;-40
2023/02/21 11:27:18;;;;;;;;;;;;;;;19.03;60.79;100451.22;7405307;19;1923;-40
2023/02/21 11:29:48;;;;;;;;;;;;;;;18.92;60.98;100462.94;7403804;19;1649;-40
2023/02/21 11:32:24;;;;;;;;;;;;;;;18.87;61.48;100449.13;7404499;19;1775;-40
2023/02/21 11:34:52;;;;;;;;;;;;;;;19.41;59.33;100469.03;7401473;19;1921;-40
2023/02/21 11:37:21;;;;;;;;;;;;;;;19.60;58.72;100440.50;7404755;19;1931;-40
2023/02/21 11:39:52;;;;;;;;;;;;;;;19.27;59.47;100440.03;7402474;19;1907;-40
2023/02/21 11:42:32;;;;;;;;;;;;;;;19.07;60.48;100434.69;7404425;19;2857;-40
2023/02/21 11:45:17;;;;;;;;;;;;;;;19.00;60.73;100438.09;7404318;19;1808;-40
2023/02/21 11:47:48;;;;;;;;;;;;;;;18.88;60.73;100448.97;7404836;19;1477;-40
2023/02/21 11:50:21;;;;;;;;;;;;;;;19.38;58.89;100434.50;7404689;19;2104;-40
2023/02/21 11:52:53;;;;;;;;;;;;;;;19.59;56.83;100420.00;7403515;19;2094;-40
2023/02/21 11:55:24;;;;;;;;;;;;;;;19.31;58.17;100421.81;7403287;19;2161;-40
2023/02/21 11:57:58;;;;;;;;;;;;;;;19.06;59.21;100424.16;7403680;19;2089;-40
2023/02/21 12:00:31;;;;;;;;;;;;;;;18.87;59.81;100425.00;7403027;19;1521;-40
2023/02/21 12:03:09;;;;;;;;;;;;;;;18.82;60.19;100427.25;7403402;19;2031;-40
2023/02/21 12:05:47;;;;;;;;;;;;;;;19.28;58.63;100420.28;7403557;19;1760;-40
2023/02/21 12:08:26;;;;;;;;;;;;;;;19.75;57.40;100417.56;7402245;19;1995;-40
2023/02/21 12:11:01;;;;;;;;;;;;;;;19.37;58.50;100405.97;7402741;19;1977;-40
2023/02/21 12:13:38;;;;;;;;;;;;;;;19.05;59.15;100396.47;7402845;19;2148;-40
2023/02/21 12:16:12;;;;;;;;;;;;;;;18.94;59.98;100423.47;7404017;19;1805;-40
2023/02/21 12:18:49;;;;;;;;;;;;;;;18.87;60.76;100419.66;7401494;19;1859;-40
2023/02/21 12:21:34;;;;;;;;;;;;;;;18.93;61.30;100403.00;7403409;19;1740;-40
2023/02/21 12:24:07;;;;;;;;;;;;;;;19.58;59.31;100429.06;7403292;19;1960;-40
2023/02/21 12:26:45;;;;;;;;;;;;;;;19.66;58.09;100403.19;7403579;19;1791;-40
2023/02/21 12:29:24;;;;;;;;;;;;;;;19.32;59.22;100397.53;7401668;19;1846;-40
2023/02/21 12:31:58;;;;;;;;;;;;;;;19.02;60.51;100380.72;7402686;19;2128;-40
2023/02/21 12:34:36;;;;;;;;;;;;;;;18.92;60.84;100395.97;7401637;19;1857;-40
2023/02/21 12:37:15;;;;;;;;;;;;;;;18.85;60.87;100398.34;7402308;19;2001;-40
2023/02/21 12:39:58;;;;;;;;;;;;;;;19.04;60.30;100405.53;7401529;19;1863;-40
2023/02/21 12:42:34;;;;;;;;;;;;;;;19.57;58.38;100379.91;7401918;19;1818;-40
2023/02/21 12:45:14;;;;;;;;;;;;;;;19.51;57.95;100390.41;7400863;19;2040;-40
2023/02/21 12:47:48;;;;;;;;;;;;;;;19.19;59.26;100383.63;7402478;19;2019;-39
2023/02/21 12:50:19;;;;;;;;;;;;;;;19.02;59.85;100386.06;7402451;19;1842;-40
2023/02/21 12:52:53;;;;;;;;;;;;;;;18.92;60.27;100379.88;7401616;19;1787;-40
2023/02/21 12:55:23;;;;;;;;;;;;;;;18.89;60.09;100382.84;7400846;19;1827;-40
2023/02/21 12:57:53;;;;;;;;;;;;;;;19.41;58.32;100369.81;7402016;19;1788;-40
2023/02/21 13:00:27;;;;;;;;;;;;;;;19.59;56.29;100367.19;7399877;19;1854;-40
2023/02/21 13:03:01;;;;;;;;;;;;;;;19.24;58.06;100358.06;7400586;19;1676;-40
2023/02/21 13:05:34;;;;;;;;;;;;;;;18.97;59.25;100356.16;7401488;19;1542;-40
2023/02/21 13:08:05;;;;;;;;;;;;;;;18.82;59.34;100349.56;7402589;19;1019;-40
2023/02/21 13:10:36;;;;;;;;;;;;;;;18.68;60.07;100330.28;7402740;19;1888;-40
2023/02/21 13:13:07;;;;;;;;;;;;;;;19.14;58.58;100343.84;7401527;19;1839;-40
2023/02/21 13:15:38;;;;;;;;;;;;;;;19.63;57.47;100339.09;7401399;19;2106;-40
2023/02/21 13:18:09;;;;;;;;;;;;;;;19.44;57.00;100336.53;7399728;19;2051;-40
2023/02/21 13:20:39;;;;;;;;;;;;;;;19.10;57.88;100338.91;7399222;19;2026;-40
2023/02/21 13:26:11;;;;;;;;;;;;;;;18.79;59.19;100326.59;7400970;19;2036;-40
2023/02/21 13:28:40;;;;;;;;;;;;;;;18.92;59.05;100341.50;7401155;19;1983;-40
2023/02/21 13:31:23;;;;;;;;;;;;;;;19.47;56.75;100337.06;7400491;19;2032;-40
2023/02/21 13:33:52;;;;;;;;;;;;;;;19.87;55.83;100335.03;7400201;19;1837;-41
2023/02/21 13:36:29;;;;;;;;;;;;;;;19.52;56.97;100335.75;7398555;19;2416;-40
2023/02/21 13:39:02;;;;;;;;;;;;;;;19.14;58.24;100332.25;7400723;19;2063;-40
2023/02/21 13:41:32;;;;;;;;;;;;;;;18.95;58.62;100344.75;7400373;19;2399;-40
2023/02/21 13:44:02;;;;;;;;;;;;;;;18.81;58.87;100335.34;7400207;19;1216;-40
2023/02/21 13:46:49;;;;;;;;;;;;;;;18.79;59.14;100352.53;7400482;19;2243;-41
2023/02/21 13:49:32;;;;;;;;;;;;;;;19.56;57.30;100329.13;7398176;19;3110;-40
2023/02/21 13:52:17;;;;;;;;;;;;;;;20.01;56.47;100339.03;7400138;19;1906;-40
2023/02/21 13:55:00;;;;;;;;;;;;;;;19.58;57.73;100345.91;7398986;19;1860;-40
2023/02/21 13:57:35;;;;;;;;;;;;;;;19.17;58.70;100334.66;7395717;19;1681;-39
2023/02/21 14:00:39;;;;;;;;;;;;;;;18.78;59.09;100340.97;7398214;19;1900;-40
2023/02/21 14:03:30;;;;;;;;;;;;;;;18.52;59.60;100351.41;7399826;19;2357;-40
2023/02/21 14:06:13;;;;;;;;;;;;;;;18.88;58.66;100340.97;7396410;19;1882;-40
2023/02/21 14:08:44;;;;;;;;;;;;;;;19.46;57.11;100330.03;7397943;19;1794;-40
2023/02/21 14:11:16;;;;;;;;;;;;;;;19.26;56.96;100355.25;7400655;19;1864;-40
2023/02/21 14:13:48;;;;;;;;;;;;;;;18.99;58.43;100346.16;7398610;19;1851;-41
2023/02/21 14:16:21;;;;;;;;;;;;;;;18.81;59.54;100331.81;7398392;19;1920;-40
2023/02/21 14:18:51;;;;;;;;;;;;;;;18.74;60.52;100333.34;7398034;19;1841;-40
2023/02/21 14:21:26;;;;;;;;;;;;;;;18.81;60.54;100343.38;7395607;19;1805;-40
2023/02/21 14:23:56;;;;;;;;;;;;;;;19.30;59.38;100348.59;7396692;19;1844;-40
2023/02/21 14:26:40;;;;;;;;;;;;;;;19.17;62.24;100332.81;7397635;19;1677;-40
2023/02/21 14:29:15;;;;;;;;;;;;;;;18.97;62.67;100331.22;7397562;19;1898;-40
2023/02/21 14:31:54;;;;;;;;;;;;;;;18.77;61.99;100367.91;7399530;19;1672;-40
2023/02/21 14:34:24;;;;;;;;;;;;;;;18.60;62.58;100343.53;7397524;19;1696;-40
2023/02/21 14:36:53;;;;;;;;;;;;;;;18.67;63.51;100341.97;7394310;19;1879;-40
2023/02/21 14:39:24;;;;;;;;;;;;;;;19.31;63.10;100341.38;7397702;19;2013;-40
2023/02/21 14:42:05;;;;;;;;;;;;;;;19.55;62.54;100339.00;7396924;19;1763;-40
2023/02/21 14:44:41;;;;;;;;;;;;;;;19.26;63.27;100344.53;7397264;19;2114;-40
2023/02/21 14:47:24;;;;;;;;;;;;;;;19.12;63.89;100321.72;7397080;19;2373;-40
2023/02/21 14:50:12;;;;;;;;;;;;;;;18.90;64.62;100328.28;7397410;19;1950;-40
2023/02/21 14:53:04;;;;;;;;;;;;;;;18.78;64.87;100316.88;7398156;19;1645;-40
2023/02/21 14:55:47;;;;;;;;;;;;;;;18.98;64.24;100309.63;7397634;19;1560;-40
2023/02/21 14:58:40;;;;;;;;;;;;;;;19.53;63.14;100307.97;7396024;19;2009;-40
2023/02/21 15:01:16;;;;;;;;;;;;;;;19.28;64.09;100307.69;7396641;19;1853;-40
2023/02/21 15:03:48;;;;;;;;;;;;;;;18.93;64.31;100319.94;7398682;19;1912;-40
2023/02/21 15:06:21;;;;;;;;;;;;;;;18.68;65.17;100327.59;7397590;19;2263;-40
2023/02/21 15:08:50;;;;;;;;;;;;;;;18.77;66.03;100335.75;7402758;19;1755;-40
2023/02/21 15:11:22;;;;;;;;;;;;;;;19.37;64.35;100332.75;7405787;19;1786;-41
2023/02/21 15:13:50;;;;;;;;;;;;;;;19.61;63.60;100326.81;7403854;19;2140;-40
2023/02/21 15:16:21;;;;;;;;;;;;;;;19.13;65.04;100331.44;7403820;19;2161;-41
2023/02/21 15:18:59;;;;;;;;;;;;;;;18.81;65.72;100339.84;7404184;19;1900;-41
2023/02/21 15:21:29;;;;;;;;;;;;;;;18.56;66.65;100350.16;7401174;19;1838;-40
2023/02/21 15:24:02;;;;;;;;;;;;;;;18.85;65.97;100362.69;7405874;19;1792;-41
2023/02/21 15:26:33;;;;;;;;;;;;;;;19.43;64.09;100348.25;7402526;19;1755;-40
2023/02/21 15:29:09;;;;;;;;;;;;;;;19.39;64.09;100371.81;7404263;19;1903;-40